SWA1738 KCMH-KDCA
Flight info
| Callsign | SWA1738 |
|---|---|
| Flight time | 1h 2m |
| Altitude | 37000 |
| Route | OWEBO AIR BUCKO FRDMM6 |
| Aircraft | B736/M-SDE2E3FGHIRWXY/LB1 |
Departure
| Time | 2026-05-04 02:35 |
|---|---|
| Airport | John Glenn Columbus International Airport (KCMH) |
Arrival
| Time | 2026-05-04 03:37 |
|---|---|
| Airport | Ronald Reagan Washington National Airport (KDCA) |
| Time | Latitude | Longitude | Altitude | Speed | Heading |
|---|---|---|---|---|---|
| 2026-05-04 01:47 | 39.99657 | -82.88662 | 820 ft | 0 kts | 20° |
| 2026-05-04 02:10 | 39.99651 | -82.88665 | 818 ft | 2 kts | 20° |
| 2026-05-04 02:11 | 39.99636 | -82.88673 | 819 ft | 2 kts | 20° |
| 2026-05-04 02:11 | 39.99620 | -82.88680 | 817 ft | 2 kts | 20° |
| 2026-05-04 02:11 | 39.99605 | -82.88688 | 818 ft | 2 kts | 30° |
| 2026-05-04 02:11 | 39.99593 | -82.88700 | 813 ft | 2 kts | 61° |
| 2026-05-04 02:12 | 39.99588 | -82.88718 | 817 ft | 1 kts | 97° |
| 2026-05-04 02:12 | 39.99589 | -82.88728 | 817 ft | 1 kts | 104° |
| 2026-05-04 02:12 | 39.99590 | -82.88729 | 817 ft | 0 kts | 104° |
| 2026-05-04 02:14 | 39.99590 | -82.88722 | 817 ft | 1 kts | 84° |
| 2026-05-04 02:14 | 39.99598 | -82.88714 | 813 ft | 2 kts | 23° |
| 2026-05-04 02:14 | 39.99607 | -82.88721 | 816 ft | 1 kts | 311° |
| 2026-05-04 02:15 | 39.99606 | -82.88743 | 815 ft | 5 kts | 268° |
| 2026-05-04 02:15 | 39.99607 | -82.88773 | 816 ft | 0 kts | 275° |
| 2026-05-04 02:29 | 39.99608 | -82.88777 | 816 ft | 2 kts | 275° |
| 2026-05-04 02:29 | 39.99610 | -82.88814 | 818 ft | 7 kts | 275° |
| 2026-05-04 02:30 | 39.99609 | -82.88879 | 816 ft | 7 kts | 248° |
| 2026-05-04 02:30 | 39.99564 | -82.88900 | 818 ft | 7 kts | 193° |
| 2026-05-04 02:30 | 39.99545 | -82.88952 | 819 ft | 7 kts | 273° |
| 2026-05-04 02:30 | 39.99549 | -82.89017 | 819 ft | 8 kts | 275° |
| 2026-05-04 02:31 | 39.99553 | -82.89106 | 820 ft | 12 kts | 263° |
| 2026-05-04 02:31 | 39.99494 | -82.89178 | 819 ft | 15 kts | 183° |
| 2026-05-04 02:31 | 39.99448 | -82.89288 | 821 ft | 16 kts | 277° |
| 2026-05-04 02:31 | 39.99459 | -82.89451 | 821 ft | 20 kts | 273° |
| 2026-05-04 02:32 | 39.99471 | -82.89649 | 816 ft | 23 kts | 274° |
| 2026-05-04 02:32 | 39.99483 | -82.89854 | 818 ft | 22 kts | 274° |
| 2026-05-04 02:32 | 39.99493 | -82.90054 | 813 ft | 22 kts | 274° |
| 2026-05-04 02:32 | 39.99505 | -82.90243 | 812 ft | 21 kts | 275° |
| 2026-05-04 02:33 | 39.99517 | -82.90433 | 812 ft | 20 kts | 274° |
| 2026-05-04 02:33 | 39.99525 | -82.90615 | 810 ft | 20 kts | 275° |
| 2026-05-04 02:33 | 39.99513 | -82.90760 | 813 ft | 6 kts | 218° |
| 2026-05-04 02:33 | 39.99474 | -82.90770 | 813 ft | 6 kts | 184° |
| 2026-05-04 02:34 | 39.99426 | -82.90775 | 813 ft | 9 kts | 184° |
| 2026-05-04 02:34 | 39.99367 | -82.90749 | 813 ft | 9 kts | 135° |
| 2026-05-04 02:34 | 39.99351 | -82.90670 | 810 ft | 10 kts | 93° |
| 2026-05-04 02:34 | 39.99328 | -82.90253 | 814 ft | 93 kts | 94° |
| 2026-05-04 02:35 | 39.99257 | -82.89056 | 917 ft | 161 kts | 96° |
| 2026-05-04 02:35 | 39.99174 | -82.87609 | 2000 ft | 160 kts | 97° |
| 2026-05-04 02:35 | 39.99220 | -82.86079 | 2811 ft | 178 kts | 93° |
| 2026-05-04 02:35 | 39.99254 | -82.84319 | 3327 ft | 215 kts | 93° |
| 2026-05-04 02:36 | 39.99260 | -82.82197 | 3689 ft | 252 kts | 93° |
| 2026-05-04 02:36 | 39.99235 | -82.79825 | 4397 ft | 265 kts | 93° |
| 2026-05-04 02:36 | 39.99178 | -82.77413 | 4847 ft | 266 kts | 93° |
| 2026-05-04 02:36 | 39.99098 | -82.74974 | 4968 ft | 273 kts | 93° |
| 2026-05-04 02:37 | 39.99008 | -82.72500 | 4972 ft | 273 kts | 93° |
| 2026-05-04 02:37 | 39.99006 | -82.70066 | 4977 ft | 272 kts | 85° |
| 2026-05-04 02:37 | 39.99216 | -82.67603 | 5218 ft | 276 kts | 82° |
| 2026-05-04 02:37 | 39.99476 | -82.65126 | 6366 ft | 273 kts | 80° |
| 2026-05-04 02:38 | 39.99735 | -82.62670 | 7544 ft | 275 kts | 79° |
| 2026-05-04 02:38 | 39.99990 | -82.60169 | 8628 ft | 280 kts | 79° |
| 2026-05-04 02:38 | 40.00241 | -82.57623 | 9694 ft | 286 kts | 79° |
| 2026-05-04 02:38 | 40.00490 | -82.55025 | 10691 ft | 290 kts | 80° |
| 2026-05-04 02:39 | 40.00735 | -82.52394 | 11681 ft | 294 kts | 81° |
| 2026-05-04 02:39 | 40.00980 | -82.49724 | 12671 ft | 298 kts | 81° |
| 2026-05-04 02:39 | 40.01225 | -82.47011 | 13644 ft | 304 kts | 82° |
| 2026-05-04 02:39 | 40.01472 | -82.44248 | 14489 ft | 309 kts | 82° |
| 2026-05-04 02:40 | 40.01718 | -82.41477 | 15346 ft | 313 kts | 81° |
| 2026-05-04 02:40 | 40.01969 | -82.38630 | 16201 ft | 318 kts | 81° |
| 2026-05-04 02:40 | 40.02222 | -82.35739 | 17061 ft | 323 kts | 81° |
| 2026-05-04 02:40 | 40.02479 | -82.32809 | 17947 ft | 327 kts | 81° |
| 2026-05-04 02:41 | 40.02738 | -82.29835 | 18745 ft | 332 kts | 81° |
| 2026-05-04 02:41 | 40.03000 | -82.26817 | 19511 ft | 338 kts | 81° |
| 2026-05-04 02:41 | 40.03265 | -82.23751 | 20287 ft | 342 kts | 81° |
| 2026-05-04 02:41 | 40.03534 | -82.20642 | 21037 ft | 348 kts | 81° |
| 2026-05-04 02:42 | 40.03806 | -82.17481 | 21804 ft | 353 kts | 81° |
| 2026-05-04 02:42 | 40.04081 | -82.14275 | 22597 ft | 358 kts | 81° |
| 2026-05-04 02:42 | 40.04359 | -82.11025 | 23385 ft | 363 kts | 81° |
| 2026-05-04 02:42 | 40.04640 | -82.07724 | 24077 ft | 368 kts | 81° |
| 2026-05-04 02:43 | 40.04923 | -82.04387 | 24793 ft | 371 kts | 81° |
| 2026-05-04 02:43 | 40.05208 | -82.01014 | 25471 ft | 376 kts | 81° |
| 2026-05-04 02:43 | 40.05496 | -81.97596 | 26120 ft | 381 kts | 81° |
| 2026-05-04 02:43 | 40.05786 | -81.94137 | 26855 ft | 384 kts | 81° |
| 2026-05-04 02:44 | 40.06074 | -81.90680 | 27726 ft | 382 kts | 81° |
| 2026-05-04 02:44 | 40.06360 | -81.87245 | 28579 ft | 381 kts | 80° |
| 2026-05-04 02:44 | 40.06645 | -81.83805 | 29339 ft | 382 kts | 80° |
| 2026-05-04 02:44 | 40.06932 | -81.80352 | 30077 ft | 382 kts | 80° |
| 2026-05-04 02:45 | 40.07218 | -81.76887 | 30587 ft | 387 kts | 80° |
| 2026-05-04 02:45 | 40.07509 | -81.73367 | 31008 ft | 394 kts | 80° |
| 2026-05-04 02:45 | 40.07679 | -81.69713 | 31007 ft | 411 kts | 90° |
| 2026-05-04 02:45 | 40.07503 | -81.65990 | 31034 ft | 409 kts | 93° |
| 2026-05-04 02:46 | 40.06985 | -81.58728 | 31019 ft | 400 kts | 94° |
| 2026-05-04 02:46 | 40.06463 | -81.51465 | 31039 ft | 403 kts | 94° |
| 2026-05-04 02:47 | 40.05967 | -81.44139 | 31036 ft | 406 kts | 93° |
| 2026-05-04 02:47 | 40.05479 | -81.36788 | 31031 ft | 407 kts | 93° |
| 2026-05-04 02:48 | 40.04990 | -81.29434 | 31028 ft | 406 kts | 93° |
| 2026-05-04 02:48 | 40.04498 | -81.22101 | 31025 ft | 405 kts | 94° |
| 2026-05-04 02:49 | 40.04003 | -81.14800 | 31022 ft | 403 kts | 94° |
| 2026-05-04 02:49 | 40.03589 | -81.08748 | 31028 ft | 402 kts | 94° |
| 2026-05-04 02:50 | 40.03006 | -81.00315 | 31029 ft | 401 kts | 94° |
| 2026-05-04 02:50 | 40.02501 | -80.93057 | 31029 ft | 401 kts | 94° |
| 2026-05-04 02:51 | 40.02077 | -80.87019 | 31028 ft | 402 kts | 95° |
| 2026-05-04 02:51 | 40.01521 | -80.83451 | 31017 ft | 402 kts | 111° |
| 2026-05-04 02:51 | 40.00358 | -80.80151 | 31026 ft | 399 kts | 124° |
| 2026-05-04 02:52 | 39.98694 | -80.77293 | 31030 ft | 394 kts | 137° |
| 2026-05-04 02:52 | 39.96827 | -80.74682 | 31023 ft | 394 kts | 139° |
| 2026-05-04 02:52 | 39.93022 | -80.69523 | 31023 ft | 396 kts | 139° |
| 2026-05-04 02:53 | 39.89210 | -80.64322 | 31031 ft | 398 kts | 139° |
| 2026-05-04 02:53 | 39.85404 | -80.59076 | 31032 ft | 399 kts | 139° |
| 2026-05-04 02:54 | 39.81594 | -80.53810 | 31035 ft | 399 kts | 139° |
| 2026-05-04 02:54 | 39.77786 | -80.48552 | 31035 ft | 399 kts | 139° |
| 2026-05-04 02:55 | 39.72081 | -80.40686 | 31032 ft | 398 kts | 139° |
| 2026-05-04 02:56 | 39.68286 | -80.35467 | 31038 ft | 397 kts | 139° |
| 2026-05-04 02:56 | 39.64490 | -80.30258 | 31035 ft | 396 kts | 139° |
| 2026-05-04 02:57 | 39.60700 | -80.25064 | 31045 ft | 396 kts | 139° |
| 2026-05-04 02:57 | 39.56930 | -80.19907 | 31050 ft | 397 kts | 140° |
| 2026-05-04 02:58 | 39.53118 | -80.14703 | 31052 ft | 399 kts | 140° |
| 2026-05-04 02:58 | 39.49286 | -80.09482 | 31048 ft | 400 kts | 140° |
| 2026-05-04 02:59 | 39.45446 | -80.04255 | 31057 ft | 401 kts | 140° |
| 2026-05-04 02:59 | 39.41596 | -79.99021 | 31044 ft | 401 kts | 140° |
| 2026-05-04 03:00 | 39.37753 | -79.93806 | 31052 ft | 400 kts | 140° |
| 2026-05-04 03:00 | 39.33915 | -79.88607 | 31059 ft | 399 kts | 140° |
| 2026-05-04 03:01 | 39.30077 | -79.83418 | 31059 ft | 399 kts | 141° |
| 2026-05-04 03:01 | 39.28055 | -79.81016 | 31046 ft | 388 kts | 155° |
| 2026-05-04 03:01 | 39.25706 | -79.79520 | 31088 ft | 367 kts | 174° |
| 2026-05-04 03:01 | 39.23266 | -79.78983 | 31085 ft | 347 kts | 191° |
| 2026-05-04 03:02 | 39.20937 | -79.79297 | 31072 ft | 329 kts | 206° |
| 2026-05-04 03:02 | 39.18859 | -79.80316 | 31087 ft | 313 kts | 219° |
| 2026-05-04 03:02 | 39.17132 | -79.81855 | 31066 ft | 301 kts | 232° |
| 2026-05-04 03:02 | 39.15758 | -79.83823 | 31082 ft | 291 kts | 243° |
| 2026-05-04 03:03 | 39.14790 | -79.86078 | 31066 ft | 285 kts | 253° |
| 2026-05-04 03:03 | 39.14245 | -79.88508 | 31072 ft | 281 kts | 264° |
| 2026-05-04 03:03 | 39.14129 | -79.91010 | 31078 ft | 279 kts | 274° |
| 2026-05-04 03:03 | 39.14412 | -79.93485 | 31061 ft | 280 kts | 282° |
| 2026-05-04 03:04 | 39.14982 | -79.95888 | 31059 ft | 282 kts | 289° |
| 2026-05-04 03:04 | 39.15948 | -79.98099 | 31048 ft | 288 kts | 303° |
| 2026-05-04 03:04 | 39.17494 | -79.99815 | 31066 ft | 301 kts | 321° |
| 2026-05-04 03:04 | 39.19443 | -80.00943 | 31066 ft | 314 kts | 332° |
| 2026-05-04 03:05 | 39.21608 | -80.01586 | 31052 ft | 325 kts | 342° |
| 2026-05-04 03:05 | 39.23920 | -80.01650 | 31050 ft | 341 kts | 355° |
| 2026-05-04 03:05 | 39.26289 | -80.00928 | 31044 ft | 360 kts | 11° |
| 2026-05-04 03:05 | 39.28523 | -79.99270 | 31055 ft | 380 kts | 30° |
| 2026-05-04 03:06 | 39.30326 | -79.96736 | 31049 ft | 398 kts | 51° |
| 2026-05-04 03:06 | 39.31492 | -79.93447 | 31056 ft | 410 kts | 72° |
| 2026-05-04 03:06 | 39.31802 | -79.89783 | 31057 ft | 414 kts | 94° |
| 2026-05-04 03:06 | 39.31201 | -79.86165 | 31075 ft | 411 kts | 115° |
| 2026-05-04 03:07 | 39.29840 | -79.82972 | 31062 ft | 402 kts | 132° |
| 2026-05-04 03:07 | 39.28366 | -79.79829 | 30440 ft | 421 kts | 114° |
| 2026-05-04 03:07 | 39.27697 | -79.76161 | 30140 ft | 422 kts | 94° |
| 2026-05-04 03:07 | 39.27717 | -79.72374 | 29733 ft | 420 kts | 86° |
| 2026-05-04 03:08 | 39.27735 | -79.68606 | 29353 ft | 420 kts | 90° |
| 2026-05-04 03:08 | 39.27640 | -79.64840 | 29006 ft | 419 kts | 92° |
| 2026-05-04 03:08 | 39.27494 | -79.61091 | 28653 ft | 418 kts | 92° |
| 2026-05-04 03:08 | 39.27338 | -79.57346 | 28313 ft | 417 kts | 92° |
| 2026-05-04 03:09 | 39.27144 | -79.53615 | 27957 ft | 416 kts | 95° |
| 2026-05-04 03:09 | 39.26854 | -79.49906 | 27619 ft | 414 kts | 96° |
| 2026-05-04 03:09 | 39.26536 | -79.46264 | 27281 ft | 413 kts | 96° |
| 2026-05-04 03:09 | 39.26211 | -79.42588 | 26934 ft | 412 kts | 96° |
| 2026-05-04 03:10 | 39.25896 | -79.38913 | 26578 ft | 411 kts | 96° |
| 2026-05-04 03:10 | 39.25590 | -79.35257 | 26266 ft | 410 kts | 96° |
| 2026-05-04 03:10 | 39.25289 | -79.31601 | 25929 ft | 410 kts | 96° |
| 2026-05-04 03:10 | 39.24987 | -79.27940 | 25594 ft | 410 kts | 96° |
| 2026-05-04 03:11 | 39.24678 | -79.24212 | 25282 ft | 428 kts | 96° |
| 2026-05-04 03:11 | 39.24349 | -79.20274 | 24922 ft | 453 kts | 96° |
| 2026-05-04 03:11 | 39.24005 | -79.16228 | 24516 ft | 451 kts | 96° |
| 2026-05-04 03:11 | 39.23663 | -79.12230 | 24160 ft | 448 kts | 96° |
| 2026-05-04 03:12 | 39.23321 | -79.08237 | 23782 ft | 446 kts | 96° |
| 2026-05-04 03:12 | 39.22981 | -79.04269 | 23375 ft | 444 kts | 96° |
| 2026-05-04 03:12 | 39.22642 | -79.00322 | 22969 ft | 441 kts | 96° |
| 2026-05-04 03:12 | 39.22308 | -78.96451 | 22585 ft | 438 kts | 96° |
| 2026-05-04 03:13 | 39.21952 | -78.92560 | 22238 ft | 434 kts | 97° |
| 2026-05-04 03:13 | 39.21578 | -78.88704 | 21864 ft | 431 kts | 97° |
| 2026-05-04 03:13 | 39.21200 | -78.84865 | 21511 ft | 428 kts | 97° |
| 2026-05-04 03:13 | 39.20827 | -78.81067 | 21160 ft | 426 kts | 97° |
| 2026-05-04 03:14 | 39.20458 | -78.77287 | 20800 ft | 424 kts | 97° |
| 2026-05-04 03:14 | 39.20091 | -78.73527 | 20459 ft | 421 kts | 97° |
| 2026-05-04 03:14 | 39.19726 | -78.69793 | 20121 ft | 418 kts | 97° |
| 2026-05-04 03:14 | 39.19364 | -78.66114 | 19785 ft | 417 kts | 97° |
| 2026-05-04 03:15 | 39.18999 | -78.62419 | 19439 ft | 414 kts | 97° |
| 2026-05-04 03:15 | 39.18635 | -78.58740 | 19113 ft | 412 kts | 97° |
| 2026-05-04 03:15 | 39.18272 | -78.55079 | 18766 ft | 410 kts | 97° |
| 2026-05-04 03:15 | 39.17910 | -78.51437 | 18442 ft | 408 kts | 97° |
| 2026-05-04 03:16 | 39.17549 | -78.47824 | 18066 ft | 406 kts | 97° |
| 2026-05-04 03:16 | 39.17189 | -78.44221 | 17699 ft | 403 kts | 97° |
| 2026-05-04 03:16 | 39.16835 | -78.40692 | 17352 ft | 400 kts | 98° |
| 2026-05-04 03:16 | 39.16474 | -78.37142 | 16985 ft | 397 kts | 98° |
| 2026-05-04 03:17 | 39.15885 | -78.33685 | 16657 ft | 393 kts | 107° |
| 2026-05-04 03:17 | 39.15054 | -78.30353 | 16337 ft | 389 kts | 110° |
| 2026-05-04 03:17 | 39.14164 | -78.27075 | 16020 ft | 386 kts | 111° |
| 2026-05-04 03:17 | 39.13290 | -78.23819 | 15700 ft | 383 kts | 110° |
| 2026-05-04 03:18 | 39.12448 | -78.20575 | 15391 ft | 381 kts | 109° |
| 2026-05-04 03:18 | 39.11635 | -78.17347 | 15075 ft | 378 kts | 109° |
| 2026-05-04 03:18 | 39.10833 | -78.14130 | 14775 ft | 376 kts | 109° |
| 2026-05-04 03:18 | 39.10036 | -78.10929 | 14459 ft | 374 kts | 109° |
| 2026-05-04 03:19 | 39.09231 | -78.07751 | 14150 ft | 372 kts | 109° |
| 2026-05-04 03:19 | 39.08425 | -78.04599 | 13858 ft | 370 kts | 109° |
| 2026-05-04 03:19 | 39.07623 | -78.01468 | 13516 ft | 368 kts | 109° |
| 2026-05-04 03:19 | 39.06825 | -77.98350 | 13192 ft | 366 kts | 109° |
| 2026-05-04 03:20 | 39.06030 | -77.95249 | 13020 ft | 362 kts | 109° |
| 2026-05-04 03:20 | 39.05249 | -77.92198 | 12999 ft | 355 kts | 109° |
| 2026-05-04 03:20 | 39.04487 | -77.89229 | 12984 ft | 342 kts | 109° |
| 2026-05-04 03:20 | 39.03759 | -77.86395 | 12984 ft | 325 kts | 109° |
| 2026-05-04 03:21 | 39.03076 | -77.83738 | 12989 ft | 310 kts | 109° |
| 2026-05-04 03:21 | 39.02414 | -77.81166 | 12997 ft | 296 kts | 110° |
| 2026-05-04 03:21 | 39.01780 | -77.78709 | 12998 ft | 282 kts | 110° |
| 2026-05-04 03:21 | 39.01176 | -77.76368 | 12999 ft | 271 kts | 110° |
| 2026-05-04 03:22 | 39.00581 | -77.74070 | 13020 ft | 276 kts | 110° |
| 2026-05-04 03:22 | 38.99933 | -77.71575 | 13066 ft | 313 kts | 110° |
| 2026-05-04 03:22 | 38.99224 | -77.68845 | 12994 ft | 324 kts | 109° |
| 2026-05-04 03:22 | 38.98514 | -77.66099 | 12796 ft | 323 kts | 110° |
| 2026-05-04 03:23 | 38.97719 | -77.63414 | 12426 ft | 320 kts | 115° |
| 2026-05-04 03:23 | 38.96801 | -77.60807 | 11968 ft | 321 kts | 117° |
| 2026-05-04 03:23 | 38.95856 | -77.58217 | 11566 ft | 320 kts | 117° |
| 2026-05-04 03:23 | 38.94919 | -77.55633 | 11136 ft | 317 kts | 117° |
| 2026-05-04 03:24 | 38.94003 | -77.53073 | 10581 ft | 314 kts | 116° |
| 2026-05-04 03:24 | 38.93105 | -77.50535 | 10042 ft | 311 kts | 116° |
| 2026-05-04 03:24 | 38.92217 | -77.48019 | 9465 ft | 308 kts | 116° |
| 2026-05-04 03:24 | 38.91337 | -77.45526 | 8886 ft | 304 kts | 117° |
| 2026-05-04 03:25 | 38.90396 | -77.43125 | 8314 ft | 300 kts | 122° |
| 2026-05-04 03:25 | 38.89375 | -77.40805 | 7749 ft | 296 kts | 123° |
| 2026-05-04 03:25 | 38.88358 | -77.38529 | 7250 ft | 291 kts | 123° |
| 2026-05-04 03:25 | 38.87384 | -77.36322 | 7076 ft | 275 kts | 123° |
| 2026-05-04 03:26 | 38.86449 | -77.34189 | 7017 ft | 278 kts | 122° |
| 2026-05-04 03:26 | 38.85482 | -77.31984 | 6784 ft | 286 kts | 122° |
| 2026-05-04 03:26 | 38.84502 | -77.29751 | 6532 ft | 287 kts | 123° |
| 2026-05-04 03:26 | 38.83507 | -77.27532 | 6270 ft | 286 kts | 123° |
| 2026-05-04 03:27 | 38.82515 | -77.25335 | 6013 ft | 284 kts | 123° |
| 2026-05-04 03:27 | 38.81531 | -77.23155 | 5746 ft | 281 kts | 123° |
| 2026-05-04 03:27 | 38.80568 | -77.21018 | 5468 ft | 270 kts | 122° |
| 2026-05-04 03:27 | 38.79651 | -77.18982 | 5202 ft | 259 kts | 122° |
| 2026-05-04 03:28 | 38.78767 | -77.17023 | 4933 ft | 249 kts | 122° |
| 2026-05-04 03:28 | 38.77927 | -77.15163 | 4671 ft | 240 kts | 122° |
| 2026-05-04 03:28 | 38.77103 | -77.13340 | 4399 ft | 233 kts | 122° |
| 2026-05-04 03:28 | 38.76049 | -77.11846 | 4114 ft | 223 kts | 153° |
| 2026-05-04 03:29 | 38.74604 | -77.11248 | 3886 ft | 218 kts | 175° |
| 2026-05-04 03:29 | 38.73098 | -77.11120 | 3623 ft | 214 kts | 180° |
| 2026-05-04 03:29 | 38.71635 | -77.11064 | 3421 ft | 210 kts | 180° |
| 2026-05-04 03:29 | 38.70150 | -77.11012 | 3135 ft | 217 kts | 180° |
| 2026-05-04 03:30 | 38.68639 | -77.10969 | 3026 ft | 216 kts | 180° |
| 2026-05-04 03:30 | 38.67122 | -77.10931 | 2991 ft | 218 kts | 180° |
| 2026-05-04 03:30 | 38.65608 | -77.10892 | 2963 ft | 217 kts | 180° |
| 2026-05-04 03:30 | 38.64102 | -77.10844 | 2914 ft | 216 kts | 180° |
| 2026-05-04 03:31 | 38.62613 | -77.10699 | 2878 ft | 213 kts | 163° |
| 2026-05-04 03:31 | 38.61473 | -77.09565 | 2940 ft | 214 kts | 120° |
| 2026-05-04 03:31 | 38.61169 | -77.07695 | 3013 ft | 221 kts | 90° |
| 2026-05-04 03:31 | 38.61257 | -77.05708 | 2983 ft | 225 kts | 76° |
| 2026-05-04 03:32 | 38.62102 | -77.04087 | 2994 ft | 222 kts | 34° |
| 2026-05-04 03:32 | 38.63460 | -77.03134 | 3008 ft | 225 kts | 26° |
| 2026-05-04 03:32 | 38.64849 | -77.02257 | 2996 ft | 226 kts | 18° |
| 2026-05-04 03:32 | 38.66373 | -77.02017 | 3012 ft | 215 kts | 358° |
| 2026-05-04 03:33 | 38.67822 | -77.02050 | 2985 ft | 198 kts | 355° |
| 2026-05-04 03:33 | 38.69142 | -77.02155 | 2924 ft | 183 kts | 353° |
| 2026-05-04 03:33 | 38.70373 | -77.02277 | 2732 ft | 172 kts | 353° |
| 2026-05-04 03:33 | 38.71547 | -77.02398 | 2516 ft | 167 kts | 353° |
| 2026-05-04 03:34 | 38.72708 | -77.02516 | 2290 ft | 168 kts | 354° |
| 2026-05-04 03:34 | 38.73866 | -77.02633 | 2092 ft | 163 kts | 354° |
| 2026-05-04 03:34 | 38.74937 | -77.02741 | 1870 ft | 148 kts | 354° |
| 2026-05-04 03:34 | 38.75601 | -77.02808 | 1727 ft | 142 kts | 354° |
| 2026-05-04 03:35 | 38.76599 | -77.02916 | 1567 ft | 144 kts | 354° |
| 2026-05-04 03:35 | 38.77598 | -77.03012 | 1351 ft | 143 kts | 354° |
| 2026-05-04 03:35 | 38.78586 | -77.03108 | 1158 ft | 142 kts | 354° |
| 2026-05-04 03:35 | 38.79572 | -77.03211 | 955 ft | 142 kts | 354° |
| 2026-05-04 03:36 | 38.80549 | -77.03308 | 760 ft | 138 kts | 355° |
| 2026-05-04 03:36 | 38.81504 | -77.03406 | 579 ft | 137 kts | 355° |
| 2026-05-04 03:36 | 38.82460 | -77.03505 | 404 ft | 139 kts | 354° |
| 2026-05-04 03:36 | 38.83426 | -77.03607 | 209 ft | 139 kts | 355° |
| 2026-05-04 03:37 | 38.84378 | -77.03698 | 39 ft | 136 kts | 355° |
| 2026-05-04 03:37 | 38.85183 | -77.03778 | 23 ft | 88 kts | 355° |
| 2026-05-04 03:37 | 38.85501 | -77.03849 | 24 ft | 14 kts | 314° |
| 2026-05-04 03:37 | 38.85491 | -77.03957 | 23 ft | 14 kts | 195° |
| 2026-05-04 03:38 | 38.85393 | -77.03941 | 25 ft | 14 kts | 174° |
| 2026-05-04 03:38 | 38.85369 | -77.03939 | 23 ft | 0 kts | 175° |
| 2026-05-04 03:40 | 38.85367 | -77.03938 | 23 ft | 1 kts | 175° |
| 2026-05-04 03:40 | 38.85338 | -77.03935 | 25 ft | 8 kts | 175° |
| 2026-05-04 03:40 | 38.85273 | -77.03938 | 24 ft | 10 kts | 199° |
| 2026-05-04 03:40 | 38.85242 | -77.04005 | 24 ft | 9 kts | 272° |
| 2026-05-04 03:41 | 38.85236 | -77.04055 | 24 ft | 1 kts | 259° |
| 2026-05-04 03:41 | 38.85235 | -77.04062 | 23 ft | 0 kts | 259° |